sensor_id;sensor_type;location;lat;lon;timestamp;P1;durP1;ratioP1;P2;durP2;ratioP2
46731;SDS011;32477;51.474;5.696;2023-08-21T00:00:09;8.80;;;2.17;;
46731;SDS011;32477;51.474;5.696;2023-08-21T00:02:37;15.30;;;2.83;;
46731;SDS011;32477;51.474;5.696;2023-08-21T00:05:02;7.40;;;2.25;;
46731;SDS011;32477;51.474;5.696;2023-08-21T00:07:28;10.38;;;2.80;;
46731;SDS011;32477;51.474;5.696;2023-08-21T00:09:53;4.75;;;2.33;;
46731;SDS011;32477;51.474;5.696;2023-08-21T00:12:19;10.35;;;2.80;;
46731;SDS011;32477;51.474;5.696;2023-08-21T00:14:44;10.35;;;2.97;;
46731;SDS011;32477;51.474;5.696;2023-08-21T00:17:10;11.95;;;2.22;;
46731;SDS011;32477;51.474;5.696;2023-08-21T00:19:36;9.15;;;2.47;;
46731;SDS011;32477;51.474;5.696;2023-08-21T00:22:01;6.50;;;2.42;;
46731;SDS011;32477;51.474;5.696;2023-08-21T00:24:27;13.13;;;3.33;;
46731;SDS011;32477;51.474;5.696;2023-08-21T00:26:52;6.88;;;2.50;;
46731;SDS011;32477;51.474;5.696;2023-08-21T00:29:18;9.10;;;2.67;;
46731;SDS011;32477;51.474;5.696;2023-08-21T00:31:43;11.00;;;2.50;;
46731;SDS011;32477;51.474;5.696;2023-08-21T00:34:09;6.93;;;2.38;;
46731;SDS011;32477;51.474;5.696;2023-08-21T00:36:34;11.45;;;2.95;;
46731;SDS011;32477;51.474;5.696;2023-08-21T00:39:00;6.07;;;2.28;;
46731;SDS011;32477;51.474;5.696;2023-08-21T00:41:25;9.13;;;2.58;;
46731;SDS011;32477;51.474;5.696;2023-08-21T00:43:51;14.45;;;2.50;;
46731;SDS011;32477;51.474;5.696;2023-08-21T00:46:16;8.25;;;2.17;;
46731;SDS011;32477;51.474;5.696;2023-08-21T00:48:43;12.52;;;2.35;;
46731;SDS011;32477;51.474;5.696;2023-08-21T00:51:09;6.85;;;2.20;;
46731;SDS011;32477;51.474;5.696;2023-08-21T00:53:36;7.50;;;2.20;;
46731;SDS011;32477;51.474;5.696;2023-08-21T00:56:02;7.55;;;2.67;;
46731;SDS011;32477;51.474;5.696;2023-08-21T00:58:28;10.43;;;2.55;;
46731;SDS011;32477;51.474;5.696;2023-08-21T01:00:54;9.70;;;2.50;;
46731;SDS011;32477;51.474;5.696;2023-08-21T01:03:20;10.88;;;2.75;;
46731;SDS011;32477;51.474;5.696;2023-08-21T01:05:46;10.07;;;2.83;;
46731;SDS011;32477;51.474;5.696;2023-08-21T01:08:14;16.27;;;3.35;;
46731;SDS011;32477;51.474;5.696;2023-08-21T01:10:56;7.15;;;2.42;;
46731;SDS011;32477;51.474;5.696;2023-08-21T01:16:19;10.20;;;2.55;;
46731;SDS011;32477;51.474;5.696;2023-08-21T01:18:46;5.97;;;3.00;;
46731;SDS011;32477;51.474;5.696;2023-08-21T01:21:13;9.90;;;2.42;;
46731;SDS011;32477;51.474;5.696;2023-08-21T01:23:40;13.15;;;2.85;;
46731;SDS011;32477;51.474;5.696;2023-08-21T01:26:07;11.40;;;3.33;;
46731;SDS011;32477;51.474;5.696;2023-08-21T01:28:32;9.98;;;3.13;;
46731;SDS011;32477;51.474;5.696;2023-08-21T01:31:00;10.13;;;2.97;;
46731;SDS011;32477;51.474;5.696;2023-08-21T01:33:47;8.60;;;2.95;;
46731;SDS011;32477;51.474;5.696;2023-08-21T01:36:15;7.32;;;2.50;;
46731;SDS011;32477;51.474;5.696;2023-08-21T01:38:42;8.02;;;2.80;;
46731;SDS011;32477;51.474;5.696;2023-08-21T01:41:08;8.02;;;2.40;;
46731;SDS011;32477;51.474;5.696;2023-08-21T01:43:34;9.70;;;2.88;;
46731;SDS011;32477;51.474;5.696;2023-08-21T01:46:00;10.40;;;3.30;;
46731;SDS011;32477;51.474;5.696;2023-08-21T01:48:26;10.18;;;2.60;;
46731;SDS011;32477;51.474;5.696;2023-08-21T01:50:52;11.95;;;2.50;;
46731;SDS011;32477;51.474;5.696;2023-08-21T01:53:17;12.63;;;2.72;;
46731;SDS011;32477;51.474;5.696;2023-08-21T01:55:43;8.10;;;2.65;;
46731;SDS011;32477;51.474;5.696;2023-08-21T01:58:08;8.45;;;2.90;;
46731;SDS011;32477;51.474;5.696;2023-08-21T02:00:34;12.73;;;3.47;;
46731;SDS011;32477;51.474;5.696;2023-08-21T02:02:59;5.45;;;2.80;;
46731;SDS011;32477;51.474;5.696;2023-08-21T02:05:25;17.52;;;4.35;;
46731;SDS011;32477;51.474;5.696;2023-08-21T02:07:50;14.80;;;3.17;;
46731;SDS011;32477;51.474;5.696;2023-08-21T02:10:16;9.90;;;2.90;;
46731;SDS011;32477;51.474;5.696;2023-08-21T02:12:42;13.07;;;2.90;;
46731;SDS011;32477;51.474;5.696;2023-08-21T02:15:07;9.40;;;3.25;;
46731;SDS011;32477;51.474;5.696;2023-08-21T02:17:34;11.07;;;3.63;;
46731;SDS011;32477;51.474;5.696;2023-08-21T02:19:59;9.30;;;3.13;;
46731;SDS011;32477;51.474;5.696;2023-08-21T02:22:25;11.80;;;2.67;;
46731;SDS011;32477;51.474;5.696;2023-08-21T02:24:50;17.42;;;3.80;;
46731;SDS011;32477;51.474;5.696;2023-08-21T02:27:16;10.02;;;2.97;;
46731;SDS011;32477;51.474;5.696;2023-08-21T02:29:42;12.40;;;3.20;;
46731;SDS011;32477;51.474;5.696;2023-08-21T02:32:07;13.50;;;3.30;;
46731;SDS011;32477;51.474;5.696;2023-08-21T02:34:33;9.13;;;3.15;;
46731;SDS011;32477;51.474;5.696;2023-08-21T02:36:58;10.60;;;2.65;;
46731;SDS011;32477;51.474;5.696;2023-08-21T02:39:24;11.93;;;3.45;;
46731;SDS011;32477;51.474;5.696;2023-08-21T02:41:49;9.90;;;2.97;;
46731;SDS011;32477;51.474;5.696;2023-08-21T02:44:15;17.73;;;3.05;;
46731;SDS011;32477;51.474;5.696;2023-08-21T02:46:40;10.45;;;3.17;;
46731;SDS011;32477;51.474;5.696;2023-08-21T02:49:06;9.30;;;2.83;;
46731;SDS011;32477;51.474;5.696;2023-08-21T02:51:31;11.07;;;3.17;;
46731;SDS011;32477;51.474;5.696;2023-08-21T02:53:57;8.82;;;3.35;;
46731;SDS011;32477;51.474;5.696;2023-08-21T02:56:22;10.85;;;3.70;;
46731;SDS011;32477;51.474;5.696;2023-08-21T02:58:48;11.93;;;3.22;;
46731;SDS011;32477;51.474;5.696;2023-08-21T03:01:13;10.00;;;3.40;;
46731;SDS011;32477;51.474;5.696;2023-08-21T03:03:39;7.05;;;2.75;;
46731;SDS011;32477;51.474;5.696;2023-08-21T03:06:04;10.90;;;2.83;;
46731;SDS011;32477;51.474;5.696;2023-08-21T03:08:30;9.35;;;2.58;;
46731;SDS011;32477;51.474;5.696;2023-08-21T03:10:56;14.57;;;2.65;;
46731;SDS011;32477;51.474;5.696;2023-08-21T03:13:22;13.73;;;2.65;;
46731;SDS011;32477;51.474;5.696;2023-08-21T03:15:47;14.02;;;3.10;;
46731;SDS011;32477;51.474;5.696;2023-08-21T03:18:13;11.38;;;2.45;;
46731;SDS011;32477;51.474;5.696;2023-08-21T03:20:43;13.32;;;2.85;;
46731;SDS011;32477;51.474;5.696;2023-08-21T03:23:12;10.52;;;3.05;;
46731;SDS011;32477;51.474;5.696;2023-08-21T03:25:40;11.75;;;2.80;;
46731;SDS011;32477;51.474;5.696;2023-08-21T03:28:06;6.50;;;2.88;;
46731;SDS011;32477;51.474;5.696;2023-08-21T03:30:32;5.28;;;2.65;;
46731;SDS011;32477;51.474;5.696;2023-08-21T03:32:57;8.18;;;2.45;;
46731;SDS011;32477;51.474;5.696;2023-08-21T03:35:22;13.05;;;3.22;;
46731;SDS011;32477;51.474;5.696;2023-08-21T03:37:48;12.07;;;2.85;;
46731;SDS011;32477;51.474;5.696;2023-08-21T03:40:13;7.63;;;2.50;;
46731;SDS011;32477;51.474;5.696;2023-08-21T03:42:39;8.93;;;3.58;;
46731;SDS011;32477;51.474;5.696;2023-08-21T03:45:05;13.77;;;3.38;;
46731;SDS011;32477;51.474;5.696;2023-08-21T03:47:31;7.43;;;2.97;;
46731;SDS011;32477;51.474;5.696;2023-08-21T03:49:57;8.15;;;3.28;;
46731;SDS011;32477;51.474;5.696;2023-08-21T03:52:22;14.55;;;3.60;;
46731;SDS011;32477;51.474;5.696;2023-08-21T03:54:48;8.52;;;3.35;;
46731;SDS011;32477;51.474;5.696;2023-08-21T03:57:13;9.77;;;3.33;;
46731;SDS011;32477;51.474;5.696;2023-08-21T03:59:39;11.77;;;3.25;;
46731;SDS011;32477;51.474;5.696;2023-08-21T04:02:04;11.65;;;3.30;;
46731;SDS011;32477;51.474;5.696;2023-08-21T04:04:30;7.47;;;2.95;;
46731;SDS011;32477;51.474;5.696;2023-08-21T04:06:55;13.80;;;3.28;;
46731;SDS011;32477;51.474;5.696;2023-08-21T04:09:21;16.60;;;3.72;;
46731;SDS011;32477;51.474;5.696;2023-08-21T04:11:46;11.38;;;3.05;;
46731;SDS011;32477;51.474;5.696;2023-08-21T04:14:12;9.38;;;3.22;;
46731;SDS011;32477;51.474;5.696;2023-08-21T04:16:38;12.07;;;3.70;;
46731;SDS011;32477;51.474;5.696;2023-08-21T04:19:03;9.85;;;3.38;;
46731;SDS011;32477;51.474;5.696;2023-08-21T04:21:30;8.45;;;3.50;;
46731;SDS011;32477;51.474;5.696;2023-08-21T04:23:55;7.60;;;3.97;;
46731;SDS011;32477;51.474;5.696;2023-08-21T04:26:21;10.98;;;3.90;;
46731;SDS011;32477;51.474;5.696;2023-08-21T04:28:46;14.13;;;4.35;;
46731;SDS011;32477;51.474;5.696;2023-08-21T04:31:12;10.75;;;4.13;;
46731;SDS011;32477;51.474;5.696;2023-08-21T04:33:38;10.70;;;4.28;;
46731;SDS011;32477;51.474;5.696;2023-08-21T04:36:04;18.85;;;3.97;;
46731;SDS011;32477;51.474;5.696;2023-08-21T04:38:30;14.25;;;3.92;;
46731;SDS011;32477;51.474;5.696;2023-08-21T04:40:55;7.68;;;4.15;;
46731;SDS011;32477;51.474;5.696;2023-08-21T04:43:21;15.00;;;4.88;;
46731;SDS011;32477;51.474;5.696;2023-08-21T04:45:49;13.90;;;5.20;;
46731;SDS011;32477;51.474;5.696;2023-08-21T04:48:17;12.75;;;5.18;;
46731;SDS011;32477;51.474;5.696;2023-08-21T04:50:44;10.18;;;5.53;;
46731;SDS011;32477;51.474;5.696;2023-08-21T04:53:10;9.27;;;4.90;;
46731;SDS011;32477;51.474;5.696;2023-08-21T04:55:36;13.00;;;5.15;;
46731;SDS011;32477;51.474;5.696;2023-08-21T04:58:01;10.90;;;4.72;;
46731;SDS011;32477;51.474;5.696;2023-08-21T05:00:27;12.88;;;5.03;;
46731;SDS011;32477;51.474;5.696;2023-08-21T05:02:53;14.35;;;5.13;;
46731;SDS011;32477;51.474;5.696;2023-08-21T05:05:18;9.98;;;6.07;;
46731;SDS011;32477;51.474;5.696;2023-08-21T05:07:45;20.35;;;6.00;;
46731;SDS011;32477;51.474;5.696;2023-08-21T05:10:11;21.40;;;6.45;;
46731;SDS011;32477;51.474;5.696;2023-08-21T05:12:36;17.20;;;5.70;;
46731;SDS011;32477;51.474;5.696;2023-08-21T05:15:02;16.10;;;5.97;;
46731;SDS011;32477;51.474;5.696;2023-08-21T05:17:28;14.00;;;6.03;;
46731;SDS011;32477;51.474;5.696;2023-08-21T05:19:54;11.07;;;6.53;;
46731;SDS011;32477;51.474;5.696;2023-08-21T05:22:20;22.75;;;6.32;;
46731;SDS011;32477;51.474;5.696;2023-08-21T05:24:45;16.80;;;6.18;;
46731;SDS011;32477;51.474;5.696;2023-08-21T05:27:11;11.32;;;5.32;;
46731;SDS011;32477;51.474;5.696;2023-08-21T05:29:36;12.98;;;6.53;;
46731;SDS011;32477;51.474;5.696;2023-08-21T05:32:02;22.67;;;6.45;;
46731;SDS011;32477;51.474;5.696;2023-08-21T05:34:28;18.38;;;6.85;;
46731;SDS011;32477;51.474;5.696;2023-08-21T05:36:53;12.98;;;6.55;;
46731;SDS011;32477;51.474;5.696;2023-08-21T05:39:19;15.98;;;6.43;;
46731;SDS011;32477;51.474;5.696;2023-08-21T05:41:45;11.93;;;6.47;;
46731;SDS011;32477;51.474;5.696;2023-08-21T05:44:11;13.00;;;6.03;;
46731;SDS011;32477;51.474;5.696;2023-08-21T05:46:36;13.50;;;6.13;;
46731;SDS011;32477;51.474;5.696;2023-08-21T05:49:03;15.75;;;7.38;;
46731;SDS011;32477;51.474;5.696;2023-08-21T05:51:28;12.88;;;6.60;;
46731;SDS011;32477;51.474;5.696;2023-08-21T05:53:54;14.60;;;6.35;;
46731;SDS011;32477;51.474;5.696;2023-08-21T05:56:20;15.32;;;6.68;;
46731;SDS011;32477;51.474;5.696;2023-08-21T05:58:46;18.52;;;6.90;;
46731;SDS011;32477;51.474;5.696;2023-08-21T06:01:12;19.38;;;6.28;;
46731;SDS011;32477;51.474;5.696;2023-08-21T06:03:37;19.60;;;7.30;;
46731;SDS011;32477;51.474;5.696;2023-08-21T06:06:03;14.57;;;7.25;;
46731;SDS011;32477;51.474;5.696;2023-08-21T06:08:29;14.63;;;7.18;;
46731;SDS011;32477;51.474;5.696;2023-08-21T06:10:55;11.05;;;6.55;;
46731;SDS011;32477;51.474;5.696;2023-08-21T06:13:21;11.30;;;6.53;;
46731;SDS011;32477;51.474;5.696;2023-08-21T06:15:46;16.63;;;6.60;;
46731;SDS011;32477;51.474;5.696;2023-08-21T06:18:12;23.10;;;7.25;;
46731;SDS011;32477;51.474;5.696;2023-08-21T06:20:39;14.23;;;7.03;;
46731;SDS011;32477;51.474;5.696;2023-08-21T06:23:06;16.20;;;6.32;;
46731;SDS011;32477;51.474;5.696;2023-08-21T06:25:32;11.98;;;5.80;;
46731;SDS011;32477;51.474;5.696;2023-08-21T06:27:58;12.45;;;5.65;;
46731;SDS011;32477;51.474;5.696;2023-08-21T06:30:23;21.65;;;5.60;;
46731;SDS011;32477;51.474;5.696;2023-08-21T06:32:49;10.23;;;5.18;;
46731;SDS011;32477;51.474;5.696;2023-08-21T06:35:15;11.68;;;5.47;;
46731;SDS011;32477;51.474;5.696;2023-08-21T06:37:41;8.88;;;4.95;;
46731;SDS011;32477;51.474;5.696;2023-08-21T06:40:06;12.75;;;5.65;;
46731;SDS011;32477;51.474;5.696;2023-08-21T06:42:32;11.63;;;5.03;;
46731;SDS011;32477;51.474;5.696;2023-08-21T06:44:58;15.73;;;4.93;;
46731;SDS011;32477;51.474;5.696;2023-08-21T06:47:23;12.05;;;4.78;;
46731;SDS011;32477;51.474;5.696;2023-08-21T06:49:49;13.35;;;4.47;;
46731;SDS011;32477;51.474;5.696;2023-08-21T06:52:15;9.95;;;4.65;;
46731;SDS011;32477;51.474;5.696;2023-08-21T06:54:42;14.07;;;5.45;;
46731;SDS011;32477;51.474;5.696;2023-08-21T06:57:07;7.35;;;4.30;;
46731;SDS011;32477;51.474;5.696;2023-08-21T06:59:33;14.75;;;4.38;;
46731;SDS011;32477;51.474;5.696;2023-08-21T07:02:01;7.85;;;3.95;;
46731;SDS011;32477;51.474;5.696;2023-08-21T07:04:27;13.75;;;4.38;;
46731;SDS011;32477;51.474;5.696;2023-08-21T07:06:53;7.47;;;3.70;;
46731;SDS011;32477;51.474;5.696;2023-08-21T07:09:19;9.68;;;3.67;;
46731;SDS011;32477;51.474;5.696;2023-08-21T07:11:44;11.00;;;3.80;;
46731;SDS011;32477;51.474;5.696;2023-08-21T07:14:10;9.18;;;3.78;;
46731;SDS011;32477;51.474;5.696;2023-08-21T07:16:38;15.55;;;5.07;;
46731;SDS011;32477;51.474;5.696;2023-08-21T07:19:04;11.70;;;4.18;;
46731;SDS011;32477;51.474;5.696;2023-08-21T07:21:29;13.02;;;4.72;;
46731;SDS011;32477;51.474;5.696;2023-08-21T07:23:55;11.38;;;4.05;;
46731;SDS011;32477;51.474;5.696;2023-08-21T07:26:20;6.85;;;3.45;;
46731;SDS011;32477;51.474;5.696;2023-08-21T07:28:46;11.60;;;4.68;;
46731;SDS011;32477;51.474;5.696;2023-08-21T07:31:12;9.63;;;3.80;;
46731;SDS011;32477;51.474;5.696;2023-08-21T07:33:37;15.73;;;3.88;;
46731;SDS011;32477;51.474;5.696;2023-08-21T07:36:04;9.65;;;3.80;;
46731;SDS011;32477;51.474;5.696;2023-08-21T07:38:30;13.20;;;4.00;;
46731;SDS011;32477;51.474;5.696;2023-08-21T07:41:06;14.93;;;3.60;;
46731;SDS011;32477;51.474;5.696;2023-08-21T07:43:35;7.25;;;2.83;;
46731;SDS011;32477;51.474;5.696;2023-08-21T07:46:07;17.65;;;2.78;;
46731;SDS011;32477;51.474;5.696;2023-08-21T07:48:36;8.32;;;2.20;;
46731;SDS011;32477;51.474;5.696;2023-08-21T07:51:01;7.45;;;2.00;;
46731;SDS011;32477;51.474;5.696;2023-08-21T07:53:27;10.70;;;3.38;;
46731;SDS011;32477;51.474;5.696;2023-08-21T07:55:54;13.02;;;3.05;;
46731;SDS011;32477;51.474;5.696;2023-08-21T07:58:20;10.68;;;2.05;;
46731;SDS011;32477;51.474;5.696;2023-08-21T08:00:46;8.73;;;1.85;;
46731;SDS011;32477;51.474;5.696;2023-08-21T08:03:11;6.07;;;1.67;;
46731;SDS011;32477;51.474;5.696;2023-08-21T08:05:39;8.68;;;1.60;;
46731;SDS011;32477;51.474;5.696;2023-08-21T08:08:05;12.52;;;1.90;;
46731;SDS011;32477;51.474;5.696;2023-08-21T08:10:31;8.07;;;1.65;;
46731;SDS011;32477;51.474;5.696;2023-08-21T08:12:56;3.90;;;1.55;;
46731;SDS011;32477;51.474;5.696;2023-08-21T08:15:22;5.30;;;1.48;;
46731;SDS011;32477;51.474;5.696;2023-08-21T08:17:48;5.65;;;1.60;;
46731;SDS011;32477;51.474;5.696;2023-08-21T08:20:18;6.13;;;1.30;;
46731;SDS011;32477;51.474;5.696;2023-08-21T08:22:44;5.63;;;1.35;;
46731;SDS011;32477;51.474;5.696;2023-08-21T08:25:09;9.70;;;1.85;;
46731;SDS011;32477;51.474;5.696;2023-08-21T08:27:35;7.03;;;1.40;;
46731;SDS011;32477;51.474;5.696;2023-08-21T08:30:01;6.63;;;1.73;;
46731;SDS011;32477;51.474;5.696;2023-08-21T08:32:26;4.10;;;1.13;;
46731;SDS011;32477;51.474;5.696;2023-08-21T08:34:52;10.05;;;1.67;;
46731;SDS011;32477;51.474;5.696;2023-08-21T08:37:18;4.07;;;1.10;;
46731;SDS011;32477;51.474;5.696;2023-08-21T08:39:48;7.25;;;1.20;;
46731;SDS011;32477;51.474;5.696;2023-08-21T08:42:14;10.23;;;1.52;;
46731;SDS011;32477;51.474;5.696;2023-08-21T08:44:40;8.98;;;1.60;;
46731;SDS011;32477;51.474;5.696;2023-08-21T08:47:10;8.32;;;1.65;;
46731;SDS011;32477;51.474;5.696;2023-08-21T08:49:39;9.77;;;2.00;;
46731;SDS011;32477;51.474;5.696;2023-08-21T08:52:05;4.50;;;1.30;;
46731;SDS011;32477;51.474;5.696;2023-08-21T08:54:32;9.75;;;1.98;;
46731;SDS011;32477;51.474;5.696;2023-08-21T08:57:00;5.45;;;1.35;;
46731;SDS011;32477;51.474;5.696;2023-08-21T08:59:26;12.98;;;3.03;;
46731;SDS011;32477;51.474;5.696;2023-08-21T09:01:55;7.68;;;2.15;;
46731;SDS011;32477;51.474;5.696;2023-08-21T09:04:21;9.52;;;2.00;;
46731;SDS011;32477;51.474;5.696;2023-08-21T09:06:46;8.25;;;2.00;;
46731;SDS011;32477;51.474;5.696;2023-08-21T09:09:12;4.03;;;1.23;;
46731;SDS011;32477;51.474;5.696;2023-08-21T09:11:42;7.20;;;1.58;;
46731;SDS011;32477;51.474;5.696;2023-08-21T09:14:08;4.40;;;1.33;;
46731;SDS011;32477;51.474;5.696;2023-08-21T09:16:35;7.13;;;1.90;;
46731;SDS011;32477;51.474;5.696;2023-08-21T09:19:00;7.72;;;1.98;;
46731;SDS011;32477;51.474;5.696;2023-08-21T09:21:26;8.57;;;1.88;;
46731;SDS011;32477;51.474;5.696;2023-08-21T09:23:57;8.48;;;1.92;;
46731;SDS011;32477;51.474;5.696;2023-08-21T09:26:25;5.10;;;1.48;;
46731;SDS011;32477;51.474;5.696;2023-08-21T09:28:52;7.03;;;1.52;;
46731;SDS011;32477;51.474;5.696;2023-08-21T09:31:21;10.38;;;1.70;;
46731;SDS011;32477;51.474;5.696;2023-08-21T09:34:21;5.70;;;1.10;;
46731;SDS011;32477;51.474;5.696;2023-08-21T09:36:40;3.92;;;1.10;;
46731;SDS011;32477;51.474;5.696;2023-08-21T09:39:06;5.28;;;1.58;;
46731;SDS011;32477;51.474;5.696;2023-08-21T09:41:32;9.27;;;1.40;;
46731;SDS011;32477;51.474;5.696;2023-08-21T09:43:58;6.13;;;1.90;;
46731;SDS011;32477;51.474;5.696;2023-08-21T09:46:25;6.95;;;1.55;;
46731;SDS011;32477;51.474;5.696;2023-08-21T09:48:52;8.45;;;1.58;;
46731;SDS011;32477;51.474;5.696;2023-08-21T09:51:18;9.15;;;1.75;;
46731;SDS011;32477;51.474;5.696;2023-08-21T09:53:44;4.07;;;1.20;;
46731;SDS011;32477;51.474;5.696;2023-08-21T09:56:11;3.28;;;1.10;;
46731;SDS011;32477;51.474;5.696;2023-08-21T09:58:37;8.55;;;1.63;;
46731;SDS011;32477;51.474;5.696;2023-08-21T10:01:06;3.22;;;1.33;;
46731;SDS011;32477;51.474;5.696;2023-08-21T10:03:39;6.18;;;1.55;;
46731;SDS011;32477;51.474;5.696;2023-08-21T10:06:07;10.68;;;1.65;;
46731;SDS011;32477;51.474;5.696;2023-08-21T10:08:38;8.23;;;1.35;;
46731;SDS011;32477;51.474;5.696;2023-08-21T10:11:07;8.88;;;1.75;;
46731;SDS011;32477;51.474;5.696;2023-08-21T10:13:34;8.35;;;1.33;;
46731;SDS011;32477;51.474;5.696;2023-08-21T10:16:02;6.03;;;1.55;;
46731;SDS011;32477;51.474;5.696;2023-08-21T10:18:31;9.07;;;2.33;;
46731;SDS011;32477;51.474;5.696;2023-08-21T10:23:36;10.05;;;1.67;;
46731;SDS011;32477;51.474;5.696;2023-08-21T10:26:05;8.77;;;1.50;;
46731;SDS011;32477;51.474;5.696;2023-08-21T10:31:33;10.13;;;1.52;;
46731;SDS011;32477;51.474;5.696;2023-08-21T10:34:01;7.75;;;1.60;;
46731;SDS011;32477;51.474;5.696;2023-08-21T10:36:38;12.65;;;2.33;;
46731;SDS011;32477;51.474;5.696;2023-08-21T10:39:16;11.65;;;1.92;;
46731;SDS011;32477;51.474;5.696;2023-08-21T10:41:55;8.65;;;2.10;;
46731;SDS011;32477;51.474;5.696;2023-08-21T10:47:14;5.47;;;1.70;;
46731;SDS011;32477;51.474;5.696;2023-08-21T10:49:43;7.15;;;1.33;;
46731;SDS011;32477;51.474;5.696;2023-08-21T10:54:58;6.05;;;1.23;;
46731;SDS011;32477;51.474;5.696;2023-08-21T10:57:26;7.13;;;1.77;;
46731;SDS011;32477;51.474;5.696;2023-08-21T10:59:53;3.78;;;1.10;;
46731;SDS011;32477;51.474;5.696;2023-08-21T11:02:19;4.53;;;1.50;;
46731;SDS011;32477;51.474;5.696;2023-08-21T11:04:45;6.63;;;1.85;;
46731;SDS011;32477;51.474;5.696;2023-08-21T11:07:11;13.82;;;1.73;;
46731;SDS011;32477;51.474;5.696;2023-08-21T11:09:37;8.52;;;2.78;;
46731;SDS011;32477;51.474;5.696;2023-08-21T11:12:10;8.40;;;1.90;;
46731;SDS011;32477;51.474;5.696;2023-08-21T11:14:40;7.25;;;1.55;;
46731;SDS011;32477;51.474;5.696;2023-08-21T11:17:06;8.45;;;3.92;;
46731;SDS011;32477;51.474;5.696;2023-08-21T11:19:33;5.75;;;1.75;;
46731;SDS011;32477;51.474;5.696;2023-08-21T11:21:59;4.22;;;1.80;;
46731;SDS011;32477;51.474;5.696;2023-08-21T11:27:12;9.02;;;1.67;;
46731;SDS011;32477;51.474;5.696;2023-08-21T11:29:46;6.63;;;1.40;;
46731;SDS011;32477;51.474;5.696;2023-08-21T11:32:15;5.93;;;1.38;;
46731;SDS011;32477;51.474;5.696;2023-08-21T11:34:43;4.03;;;1.23;;
46731;SDS011;32477;51.474;5.696;2023-08-21T11:37:22;6.03;;;1.30;;
46731;SDS011;32477;51.474;5.696;2023-08-21T11:39:54;8.05;;;1.75;;
46731;SDS011;32477;51.474;5.696;2023-08-21T11:42:22;7.88;;;1.77;;
46731;SDS011;32477;51.474;5.696;2023-08-21T11:44:54;7.88;;;1.48;;
46731;SDS011;32477;51.474;5.696;2023-08-21T11:47:21;7.25;;;1.90;;
46731;SDS011;32477;51.474;5.696;2023-08-21T11:49:48;11.38;;;2.13;;
46731;SDS011;32477;51.474;5.696;2023-08-21T11:52:19;4.97;;;1.50;;
46731;SDS011;32477;51.474;5.696;2023-08-21T11:54:47;5.20;;;1.42;;
46731;SDS011;32477;51.474;5.696;2023-08-21T11:57:14;6.97;;;1.65;;
46731;SDS011;32477;51.474;5.696;2023-08-21T11:59:40;7.18;;;1.45;;
46731;SDS011;32477;51.474;5.696;2023-08-21T12:02:16;4.60;;;1.45;;
46731;SDS011;32477;51.474;5.696;2023-08-21T12:04:43;4.63;;;1.55;;
46731;SDS011;32477;51.474;5.696;2023-08-21T12:07:09;2.63;;;1.00;;
46731;SDS011;32477;51.474;5.696;2023-08-21T12:09:35;3.45;;;1.10;;
46731;SDS011;32477;51.474;5.696;2023-08-21T12:12:00;5.38;;;1.42;;
46731;SDS011;32477;51.474;5.696;2023-08-21T12:14:27;4.43;;;1.30;;
46731;SDS011;32477;51.474;5.696;2023-08-21T12:16:53;5.78;;;1.40;;
46731;SDS011;32477;51.474;5.696;2023-08-21T12:19:19;5.10;;;1.20;;
46731;SDS011;32477;51.474;5.696;2023-08-21T12:21:47;5.32;;;1.42;;
46731;SDS011;32477;51.474;5.696;2023-08-21T12:24:12;7.03;;;1.70;;
46731;SDS011;32477;51.474;5.696;2023-08-21T12:26:38;5.70;;;1.42;;
46731;SDS011;32477;51.474;5.696;2023-08-21T12:29:03;8.13;;;1.88;;
46731;SDS011;32477;51.474;5.696;2023-08-21T12:31:29;6.05;;;1.80;;
46731;SDS011;32477;51.474;5.696;2023-08-21T12:33:55;2.60;;;1.30;;
46731;SDS011;32477;51.474;5.696;2023-08-21T12:36:21;7.28;;;1.55;;
46731;SDS011;32477;51.474;5.696;2023-08-21T12:38:46;8.07;;;2.10;;
46731;SDS011;32477;51.474;5.696;2023-08-21T12:41:12;7.82;;;1.23;;
46731;SDS011;32477;51.474;5.696;2023-08-21T12:43:38;3.97;;;1.25;;
46731;SDS011;32477;51.474;5.696;2023-08-21T12:46:03;5.05;;;1.40;;
46731;SDS011;32477;51.474;5.696;2023-08-21T12:48:29;5.03;;;1.40;;
46731;SDS011;32477;51.474;5.696;2023-08-21T12:50:54;11.25;;;2.08;;
46731;SDS011;32477;51.474;5.696;2023-08-21T12:53:20;8.55;;;1.75;;
46731;SDS011;32477;51.474;5.696;2023-08-21T12:55:45;5.90;;;1.70;;
46731;SDS011;32477;51.474;5.696;2023-08-21T12:58:11;7.95;;;2.00;;
46731;SDS011;32477;51.474;5.696;2023-08-21T13:00:38;6.03;;;1.55;;
46731;SDS011;32477;51.474;5.696;2023-08-21T13:03:04;5.38;;;1.85;;
46731;SDS011;32477;51.474;5.696;2023-08-21T13:05:30;5.40;;;1.50;;
46731;SDS011;32477;51.474;5.696;2023-08-21T13:07:55;7.20;;;1.60;;
46731;SDS011;32477;51.474;5.696;2023-08-21T13:10:21;6.88;;;1.48;;
46731;SDS011;32477;51.474;5.696;2023-08-21T13:12:46;4.30;;;1.17;;
46731;SDS011;32477;51.474;5.696;2023-08-21T13:15:12;6.57;;;1.60;;
46731;SDS011;32477;51.474;5.696;2023-08-21T13:17:37;5.25;;;1.60;;
46731;SDS011;32477;51.474;5.696;2023-08-21T13:20:03;8.35;;;2.25;;
46731;SDS011;32477;51.474;5.696;2023-08-21T13:22:43;6.93;;;1.95;;
46731;SDS011;32477;51.474;5.696;2023-08-21T13:25:10;7.28;;;2.08;;
46731;SDS011;32477;51.474;5.696;2023-08-21T13:27:35;9.38;;;1.85;;
46731;SDS011;32477;51.474;5.696;2023-08-21T13:30:01;6.53;;;1.65;;
46731;SDS011;32477;51.474;5.696;2023-08-21T13:32:26;5.97;;;1.95;;
46731;SDS011;32477;51.474;5.696;2023-08-21T13:34:52;5.72;;;1.77;;
46731;SDS011;32477;51.474;5.696;2023-08-21T13:37:17;9.13;;;3.85;;
46731;SDS011;32477;51.474;5.696;2023-08-21T13:39:43;8.82;;;2.63;;
46731;SDS011;32477;51.474;5.696;2023-08-21T13:42:08;4.35;;;1.90;;
46731;SDS011;32477;51.474;5.696;2023-08-21T13:44:34;10.57;;;2.20;;
46731;SDS011;32477;51.474;5.696;2023-08-21T13:47:00;13.75;;;4.03;;
46731;SDS011;32477;51.474;5.696;2023-08-21T13:49:25;14.98;;;7.70;;
46731;SDS011;32477;51.474;5.696;2023-08-21T13:51:51;7.30;;;2.15;;
46731;SDS011;32477;51.474;5.696;2023-08-21T13:54:16;9.43;;;1.65;;
46731;SDS011;32477;51.474;5.696;2023-08-21T13:56:42;3.50;;;1.77;;
46731;SDS011;32477;51.474;5.696;2023-08-21T13:59:09;5.95;;;1.92;;
46731;SDS011;32477;51.474;5.696;2023-08-21T14:01:34;7.88;;;1.98;;
46731;SDS011;32477;51.474;5.696;2023-08-21T14:03:59;7.20;;;1.67;;
46731;SDS011;32477;51.474;5.696;2023-08-21T14:06:26;6.85;;;1.70;;
46731;SDS011;32477;51.474;5.696;2023-08-21T14:08:52;5.28;;;1.95;;
46731;SDS011;32477;51.474;5.696;2023-08-21T14:11:17;8.57;;;2.15;;
46731;SDS011;32477;51.474;5.696;2023-08-21T14:13:43;4.05;;;1.40;;
46731;SDS011;32477;51.474;5.696;2023-08-21T14:16:08;6.30;;;1.80;;
46731;SDS011;32477;51.474;5.696;2023-08-21T14:18:34;5.70;;;1.90;;
46731;SDS011;32477;51.474;5.696;2023-08-21T14:20:59;4.75;;;1.55;;
46731;SDS011;32477;51.474;5.696;2023-08-21T14:23:25;6.20;;;1.58;;
46731;SDS011;32477;51.474;5.696;2023-08-21T14:25:50;9.18;;;1.92;;
46731;SDS011;32477;51.474;5.696;2023-08-21T14:28:16;6.78;;;1.80;;
46731;SDS011;32477;51.474;5.696;2023-08-21T14:30:42;5.57;;;1.85;;
46731;SDS011;32477;51.474;5.696;2023-08-21T14:33:08;6.80;;;2.00;;
46731;SDS011;32477;51.474;5.696;2023-08-21T14:35:33;4.60;;;1.80;;
46731;SDS011;32477;51.474;5.696;2023-08-21T14:37:59;10.18;;;3.33;;
46731;SDS011;32477;51.474;5.696;2023-08-21T14:40:24;5.57;;;2.25;;
46731;SDS011;32477;51.474;5.696;2023-08-21T14:42:50;7.03;;;1.70;;
46731;SDS011;32477;51.474;5.696;2023-08-21T14:45:15;3.85;;;1.70;;
46731;SDS011;32477;51.474;5.696;2023-08-21T14:47:41;3.75;;;1.85;;
46731;SDS011;32477;51.474;5.696;2023-08-21T14:50:06;2.65;;;1.75;;
46731;SDS011;32477;51.474;5.696;2023-08-21T14:52:32;9.90;;;1.90;;
46731;SDS011;32477;51.474;5.696;2023-08-21T14:54:58;5.53;;;1.90;;